Time;durP1;ratioP1;P1;durP2;ratioP2;P2;SDS_P1;SDS_P2;PMS_P1;PMS_P2;Temp;Humidity;BMP_temperature;BMP_pressure;BME280_temperature;BME280_humidity;BME280_pressure;Samples;Min_cycle;Max_cycle;Signal;HPM_P1;HPM_P2
2022/04/05 00:01:40;;;;;;;7.65;1.50;;;7.00;99.90;;;;;;5054241;28;20059;-76
2022/04/05 00:04:05;;;;;;;;;;;7.00;99.90;;;;;;5073382;28;20049;-76
2022/04/05 00:06:32;;;;;;;5.95;1.23;;;7.00;99.90;;;;;;5072130;28;19964;-76
2022/04/05 00:08:57;;;;;;;3.75;1.17;;;7.00;99.90;;;;;;5072180;28;20075;-76
2022/04/05 00:11:23;;;;;;;;;;;7.00;99.90;;;;;;5054875;28;20048;-76
2022/04/05 00:13:49;;;;;;;7.55;1.98;;;7.00;99.90;;;;;;5072615;28;19946;-76
2022/04/05 00:16:15;;;;;;;4.35;1.20;;;7.00;99.90;;;;;;5049295;28;20534;-76
2022/04/05 00:18:41;;;;;;;;;;;7.00;99.90;;;;;;5053161;28;20049;-76
2022/04/05 00:21:09;;;;;;;5.75;1.23;;;6.90;99.90;;;;;;5052936;28;19920;-76
2022/04/05 00:23:35;;;;;;;4.72;1.02;;;6.90;99.90;;;;;;5051640;28;20052;-77
2022/04/05 00:26:01;;;;;;;11.82;2.50;;;6.90;99.90;;;;;;5034860;28;20041;-76
2022/04/05 00:28:26;;;;;;;;;;;6.90;99.90;;;;;;5034839;28;20511;-76
2022/04/05 00:30:52;;;;;;;8.35;1.33;;;6.90;99.90;;;;;;5046840;28;19972;-76
2022/04/05 00:33:17;;;;;;;;;;;7.00;99.90;;;;;;5072492;28;20137;-76
2022/04/05 00:35:43;;;;;;;5.03;1.50;;;7.00;99.90;;;;;;5070263;28;19921;-76
2022/04/05 00:38:09;;;;;;;;;;;7.00;99.90;;;;;;5072307;28;20114;-76
2022/04/05 00:40:38;;;;;;;9.38;1.40;;;7.00;99.90;;;;;;5052212;28;19971;-76
2022/04/05 00:43:05;;;;;;;6.43;1.33;;;7.00;99.90;;;;;;5074988;28;20036;-76
2022/04/05 00:45:32;;;;;;;5.82;1.27;;;7.00;99.90;;;;;;5075792;28;20129;-76
2022/04/05 00:47:59;;;;;;;3.22;1.25;;;7.00;99.90;;;;;;5040456;28;20048;-76
2022/04/05 00:50:30;;;;;;;6.72;1.30;;;7.10;99.90;;;;;;5038669;28;20041;-77
2022/04/05 00:52:55;;;;;;;6.53;1.95;;;7.10;99.90;;;;;;5055889;28;20040;-76
2022/04/05 00:55:22;;;;;;;;;;;7.10;99.90;;;;;;5038728;28;20056;-77
2022/04/05 00:57:53;;;;;;;7.32;1.67;;;7.10;99.90;;;;;;5055772;28;19925;-77
2022/04/05 01:00:21;;;;;;;9.45;1.42;;;7.00;99.90;;;;;;5056005;28;20540;-77
2022/04/05 01:02:48;;;;;;;6.68;1.98;;;7.00;99.90;;;;;;5038460;28;20071;-76
2022/04/05 01:05:19;;;;;;;5.25;1.60;;;7.10;99.90;;;;;;5037246;28;20389;-77
2022/04/05 01:07:54;;;;;;;6.78;1.50;;;7.10;99.90;;;;;;5055786;28;20049;-77
2022/04/05 01:10:21;;;;;;;8.40;1.80;;;7.10;99.90;;;;;;5047313;28;20090;-77
2022/04/05 01:12:49;;;;;;;7.30;1.85;;;7.10;99.90;;;;;;5075540;28;20123;-77
2022/04/05 01:15:14;;;;;;;5.53;1.77;;;7.10;99.90;;;;;;5075732;28;20098;-77
2022/04/05 01:17:40;;;;;;;;;;;7.10;99.90;;;;;;5058356;28;20060;-76
2022/04/05 01:20:07;;;;;;;8.05;1.52;;;7.10;99.90;;;;;;5075343;28;19920;-77
2022/04/05 01:22:32;;;;;;;5.45;1.60;;;7.10;99.90;;;;;;5057620;28;20056;-77
2022/04/05 01:24:58;;;;;;;;;;;7.10;99.90;;;;;;5066934;28;20045;-77
2022/04/05 01:27:27;;;;;;;8.85;1.65;;;7.10;99.90;;;;;;5036583;28;20364;-77
2022/04/05 01:29:53;;;;;;;9.30;1.70;;;7.10;99.90;;;;;;5055747;28;20049;-76
2022/04/05 01:32:25;;;;;;;;;;;7.10;99.90;;;;;;5055117;28;20510;-77
2022/04/05 01:34:51;;;;;;;7.15;1.63;;;8.10;99.90;;;;;;5037216;28;20340;-77
2022/04/05 01:37:16;;;;;;;;;;;7.10;99.90;;;;;;5037677;28;20179;-77
2022/04/05 01:39:42;;;;;;;7.78;1.38;;;7.10;99.90;;;;;;5037780;28;19929;-78
2022/04/05 01:42:12;;;;;;;;;;;7.10;99.90;;;;;;5037280;28;20049;-77
2022/04/05 01:44:43;;;;;;;8.02;1.73;;;7.10;99.90;;;;;;5055098;28;19921;-77
2022/04/05 01:47:11;;;;;;;6.72;1.60;;;7.10;99.90;;;;;;5036971;28;20087;-76
2022/04/05 01:49:38;;;;;;;7.13;1.35;;;7.00;99.90;;;;;;5054742;28;20036;-77
2022/04/05 01:52:04;;;;;;;6.93;1.35;;;7.10;99.90;;;;;;5037134;28;20053;-76
2022/04/05 01:54:29;;;;;;;6.00;1.60;;;7.00;99.90;;;;;;5054522;28;20114;-77
2022/04/05 01:56:55;;;;;;;;;;;7.00;99.90;;;;;;5037837;28;20073;-77
2022/04/05 01:59:26;;;;;;;9.40;2.28;;;7.00;99.90;;;;;;5055089;28;20015;-77
2022/04/05 02:01:52;;;;;;;8.05;1.30;;;7.00;99.90;;;;;;5054290;28;20044;-77
2022/04/05 02:04:18;;;;;;;7.53;1.70;;;7.00;99.90;;;;;;5036901;28;20094;-77
2022/04/05 02:06:44;;;;;;;;;;;7.00;99.90;;;;;;5054876;28;20060;-77
2022/04/05 02:09:14;;;;;;;10.13;1.70;;;7.10;99.90;;;;;;5053428;28;19928;-77
2022/04/05 02:11:42;;;;;;;12.05;1.63;;;7.00;99.90;;;;;;5053914;28;20101;-77
2022/04/05 02:14:07;;;;;;;8.35;1.60;;;7.00;99.90;;;;;;5075088;28;20079;-76
2022/04/05 02:16:33;;;;;;;;;;;7.00;99.90;;;;;;5074101;28;20068;-77
2022/04/05 02:18:59;;;;;;;9.60;1.70;;;7.00;99.90;;;;;;5057162;28;20019;-76
2022/04/05 02:21:24;;;;;;;;;;;7.00;99.90;;;;;;5056772;28;20087;-76
2022/04/05 02:23:50;;;;;;;7.25;1.67;;;7.00;99.90;;;;;;5056593;28;19920;-76
2022/04/05 02:26:16;;;;;;;;;;;7.00;99.90;;;;;;5055973;28;20071;-76
2022/04/05 02:28:42;;;;;;;6.32;1.65;;;7.80;99.90;;;;;;5054726;28;19999;-76
2022/04/05 02:31:08;;;;;;;;;;;7.00;99.90;;;;;;5054334;28;20048;-76
2022/04/05 02:33:33;;;;;;;6.32;1.52;;;7.00;99.90;;;;;;5054423;28;19921;-76
2022/04/05 02:35:59;;;;;;;;;;;7.50;99.90;;;;;;5054477;28;20045;-76
2022/04/05 02:38:24;;;;;;;5.25;1.50;;;7.00;99.90;;;;;;5035556;28;20269;-76
2022/04/05 02:40:50;;;;;;;;;;;7.00;99.90;;;;;;5037243;28;20117;-76
2022/04/05 02:43:16;;;;;;;9.13;2.05;;;7.00;99.90;;;;;;5053566;28;19928;-76
2022/04/05 02:45:41;;;;;;;;;;;6.90;99.90;;;;;;5036428;28;20048;-77
2022/04/05 02:48:07;;;;;;;6.45;1.85;;;6.90;99.90;;;;;;5053976;28;19921;-76
2022/04/05 02:50:32;;;;;;;;;;;7.00;99.90;;;;;;5053503;28;20079;-76
2022/04/05 02:52:58;;;;;;;10.05;1.58;;;7.00;99.90;;;;;;5054200;28;19973;-76
2022/04/05 02:55:24;;;;;;;;;;;7.00;99.90;;;;;;5064123;28;20396;-76
2022/04/05 02:57:50;;;;;;;8.77;1.80;;;7.00;99.90;;;;;;5073232;28;19920;-76
2022/04/05 03:00:17;;;;;;;8.07;1.40;;;7.00;99.90;;;;;;5056323;28;20423;-76
2022/04/05 03:02:43;;;;;;;4.13;1.20;;;7.00;99.90;;;;;;5056020;28;20056;-76
2022/04/05 03:05:13;;;;;;;5.28;1.65;;;7.00;99.90;;;;;;5054378;28;20045;-76
2022/04/05 03:07:39;;;;;;;7.07;1.58;;;7.00;99.90;;;;;;5055490;28;20056;-76
2022/04/05 03:10:09;;;;;;;;;;;7.00;99.90;;;;;;5069291;28;20561;-76
2022/04/05 03:12:35;;;;;;;4.57;1.42;;;7.00;99.90;;;;;;5035176;28;20213;-76
2022/04/05 03:15:06;;;;;;;6.18;1.50;;;7.00;99.90;;;;;;5035869;28;20051;-76
2022/04/05 03:17:32;;;;;;;7.78;1.42;;;7.00;99.90;;;;;;5034891;28;20049;-76
2022/04/05 03:20:03;;;;;;;4.75;1.33;;;7.00;99.90;;;;;;5035442;28;20037;-76
2022/04/05 03:22:29;;;;;;;4.57;1.58;;;7.00;99.90;;;;;;5035715;28;20053;-76
2022/04/05 03:24:55;;;;;;;;;;;6.90;99.90;;;;;;5054126;28;20041;-76
2022/04/05 03:27:21;;;;;;;8.93;1.40;;;7.00;99.90;;;;;;5042891;28;19920;-76
2022/04/05 03:29:46;;;;;;;;;;;6.90;99.90;;;;;;5073867;28;20059;-76
2022/04/05 03:32:12;;;;;;;6.90;1.35;;;6.90;99.90;;;;;;5055343;28;19920;-76
2022/04/05 03:34:38;;;;;;;9.40;1.58;;;7.00;99.90;;;;;;5056225;28;20461;-76
2022/04/05 03:37:07;;;;;;;5.82;1.50;;;7.00;99.90;;;;;;5035424;28;20048;-76
2022/04/05 03:39:33;;;;;;;6.35;1.50;;;7.00;99.90;;;;;;5034985;28;20037;-76
2022/04/05 03:41:59;;;;;;;;;;;7.00;99.90;;;;;;5041118;28;20489;-76
2022/04/05 03:44:25;;;;;;;7.68;1.65;;;7.00;99.90;;;;;;5071898;28;20364;-76
2022/04/05 03:46:52;;;;;;;5.80;1.30;;;6.90;99.90;;;;;;5054351;28;20049;-76
2022/04/05 03:49:18;;;;;;;10.45;1.83;;;7.00;99.90;;;;;;5054755;28;20048;-76
2022/04/05 03:51:44;;;;;;;;;;;7.00;99.90;;;;;;5055840;28;20427;-76
2022/04/05 03:54:09;;;;;;;5.70;1.20;;;7.00;99.90;;;;;;5054395;28;20378;-75
2022/04/05 03:56:35;;;;;;;;;;;6.90;99.90;;;;;;5052633;28;20079;-75
2022/04/05 03:59:04;;;;;;;5.53;1.50;;;7.00;99.90;;;;;;5072608;28;20025;-75
2022/04/05 04:01:33;;;;;;;10.57;2.28;;;7.00;99.90;;;;;;5071881;28;20492;-75
2022/04/05 04:04:01;;;;;;;7.97;2.10;;;7.00;99.90;;;;;;5072837;28;20032;-75
2022/04/05 04:06:30;;;;;;;7.07;1.58;;;7.00;99.90;;;;;;5054083;28;20132;-75
2022/04/05 04:08:56;;;;;;;;;;;7.00;99.90;;;;;;5052575;28;20151;-75
2022/04/05 04:11:21;;;;;;;6.80;1.55;;;7.00;99.90;;;;;;5071755;28;19920;-75
2022/04/05 04:13:50;;;;;;;;;;;7.00;99.90;;;;;;5034965;28;20529;-75
2022/04/05 04:16:15;;;;;;;7.20;1.55;;;6.90;99.90;;;;;;5033196;28;19927;-76
2022/04/05 04:18:41;;;;;;;;;;;6.90;99.90;;;;;;5035141;28;20037;-76
2022/04/05 04:21:09;;;;;;;6.55;1.52;;;6.90;99.90;;;;;;5034565;28;19921;-76
2022/04/05 04:23:35;;;;;;;;;;;6.90;99.90;;;;;;5052304;28;20043;-76
2022/04/05 04:26:00;;;;;;;8.50;1.88;;;6.90;99.90;;;;;;5034645;28;19991;-75
2022/04/05 04:28:26;;;;;;;;;;;6.90;99.90;;;;;;5035655;28;20049;-76
2022/04/05 04:30:52;;;;;;;3.67;1.25;;;6.90;99.90;;;;;;5052080;28;19920;-76
2022/04/05 04:33:17;;;;;;;;;;;6.90;99.90;;;;;;5034679;28;20508;-76
2022/04/05 04:35:44;;;;;;;5.15;1.40;;;6.80;99.90;;;;;;5052402;28;19920;-76
2022/04/05 04:38:10;;;;;;;8.00;1.60;;;6.80;99.90;;;;;;5051903;28;20037;-76
2022/04/05 04:40:36;;;;;;;;;;;6.80;99.90;;;;;;5052416;28;20176;-76
2022/04/05 04:43:02;;;;;;;5.60;1.90;;;6.80;99.90;;;;;;5047457;28;20023;-76
2022/04/05 04:45:30;;;;;;;6.18;1.80;;;6.80;99.90;;;;;;5053990;28;20051;-76
2022/04/05 04:47:57;;;;;;;4.53;1.75;;;6.90;99.90;;;;;;5054548;28;20048;-76
2022/04/05 04:50:22;;;;;;;;;;;6.70;99.90;;;;;;5071906;28;20045;-76
2022/04/05 04:52:48;;;;;;;7.47;1.67;;;6.70;99.90;;;;;;5048087;28;20384;-76
2022/04/05 04:55:14;;;;;;;;;;;6.70;99.90;;;;;;5035387;28;20040;-76
2022/04/05 04:57:39;;;;;;;6.78;1.83;;;6.60;99.90;;;;;;5058681;28;19992;-76
2022/04/05 05:00:05;;;;;;;;;;;6.60;99.90;;;;;;5060287;28;20040;-75
2022/04/05 05:02:48;;;;;;;7.00;2.13;;;6.60;99.90;;;;;;5038753;28;19966;-74
2022/04/05 05:05:21;;;;;;;6.10;2.00;;;6.60;99.90;;;;;;5033467;28;20493;-76
2022/04/05 05:07:48;;;;;;;8.13;1.70;;;6.60;99.90;;;;;;5034109;28;20048;-76
2022/04/05 05:10:15;;;;;;;5.13;1.40;;;6.70;99.90;;;;;;5034210;28;20075;-76
2022/04/05 05:12:41;;;;;;;6.00;1.30;;;6.60;99.90;;;;;;5033402;28;20053;-76
2022/04/05 05:15:13;;;;;;;4.97;1.20;;;6.60;99.90;;;;;;5058028;28;20094;-76
2022/04/05 05:17:42;;;;;;;4.85;1.88;;;6.60;99.90;;;;;;5070912;28;20047;-73
2022/04/05 05:20:08;;;;;;;5.72;1.40;;;6.60;99.90;;;;;;5059276;28;20041;-71
2022/04/05 05:22:34;;;;;;;6.18;2.00;;;6.60;99.90;;;;;;5051273;28;20552;-72
2022/04/05 05:25:00;;;;;;;;;;;6.60;99.90;;;;;;5032394;28;20136;-71
2022/04/05 05:30:27;;;;;;;5.70;2.15;;;6.60;99.90;;;;;;5055065;28;20511;-71
2022/04/05 05:32:52;;;;;;;;;;;6.60;99.90;;;;;;5070744;28;20127;-76
2022/04/05 05:35:20;;;;;;;6.45;1.83;;;6.60;99.90;;;;;;5063039;28;19975;-76
2022/04/05 05:37:46;;;;;;;6.68;1.65;;;6.60;99.90;;;;;;5039391;28;20067;-72
2022/04/05 05:40:13;;;;;;;4.45;0.95;;;6.60;99.90;;;;;;5054935;28;20079;-75
2022/04/05 05:42:57;;;;;;;4.28;1.30;;;6.60;99.90;;;;;;5037335;28;20094;-72
2022/04/05 05:45:24;;;;;;;6.00;1.50;;;6.60;99.90;;;;;;5053970;28;20068;-72
2022/04/05 05:47:50;;;;;;;4.53;1.58;;;6.60;99.90;;;;;;5053684;28;20554;-73
2022/04/05 05:50:16;;;;;;;4.20;1.60;;;6.60;99.90;;;;;;5053252;28;20037;-72
2022/04/05 05:52:43;;;;;;;5.20;1.85;;;6.60;99.90;;;;;;5068495;28;20055;-72
2022/04/05 05:55:14;;;;;;;8.60;1.40;;;6.60;99.90;;;;;;5055780;28;20132;-71
2022/04/05 05:57:41;;;;;;;9.93;1.45;;;6.70;99.90;;;;;;5054491;28;20040;-72
2022/04/05 06:00:09;;;;;;;3.97;1.13;;;6.60;99.90;;;;;;5055974;28;20094;-72
2022/04/05 06:02:39;;;;;;;6.63;1.42;;;6.70;99.90;;;;;;5072193;28;20140;-70
2022/04/05 06:05:12;;;;;;;7.25;1.85;;;6.70;99.90;;;;;;5073284;28;20045;-70
2022/04/05 06:07:37;;;;;;;3.40;1.17;;;6.70;99.90;;;;;;5053067;28;20053;-73
2022/04/05 06:10:03;;;;;;;;;;;6.80;99.90;;;;;;5057545;28;20048;-78
2022/04/05 06:12:29;;;;;;;5.03;1.52;;;6.80;99.90;;;;;;5074155;28;20364;-77
2022/04/05 06:14:54;;;;;;;;;;;6.80;99.90;;;;;;5074914;28;20056;-71
2022/04/05 06:17:20;;;;;;;5.15;1.38;;;6.80;99.90;;;;;;5074227;28;19975;-76
2022/04/05 06:19:46;;;;;;;;;;;6.90;99.90;;;;;;5056918;28;20071;-72
2022/04/05 06:22:12;;;;;;;3.63;1.00;;;6.90;99.90;;;;;;5053903;28;20013;-72
2022/04/05 06:24:40;;;;;;;;;;;7.00;99.90;;;;;;5072939;28;20071;-74
2022/04/05 06:27:06;;;;;;;4.22;1.38;;;7.00;99.90;;;;;;5071533;28;19921;-74
2022/04/05 06:29:32;;;;;;;;;;;7.00;99.90;;;;;;5072062;28;20514;-74
2022/04/05 06:31:57;;;;;;;6.45;1.25;;;7.10;99.90;;;;;;5055477;28;19920;-73
2022/04/05 06:34:24;;;;;;;;;;;7.10;99.90;;;;;;5055839;28;20463;-72
2022/04/05 06:36:51;;;;;;;4.70;1.23;;;7.20;99.90;;;;;;5064067;28;19972;-72
2022/04/05 06:39:20;;;;;;;3.53;1.08;;;7.20;99.90;;;;;;5053361;28;20124;-72
2022/04/05 06:41:46;;;;;;;4.70;1.20;;;7.20;99.90;;;;;;5035816;28;20083;-71
2022/04/05 06:44:12;;;;;;;6.68;1.63;;;7.20;99.90;;;;;;5053739;28;20389;-72
2022/04/05 06:46:37;;;;;;;;;;;7.20;99.90;;;;;;5054007;28;20124;-70
2022/04/05 06:49:03;;;;;;;6.20;1.30;;;7.20;99.90;;;;;;5054115;28;20372;-71
2022/04/05 06:51:29;;;;;;;;;;;7.20;99.90;;;;;;5044864;28;20072;-70
2022/04/05 06:53:57;;;;;;;5.35;2.05;;;7.20;99.90;;;;;;5053909;28;20418;-73
2022/04/05 06:56:25;;;;;;;5.38;1.98;;;7.20;99.90;;;;;;5053340;28;20420;-73
2022/04/05 06:58:51;;;;;;;5.38;2.40;;;7.30;99.90;;;;;;5035259;28;20133;-75
2022/04/05 07:01:17;;;;;;;4.53;2.80;;;7.30;99.90;;;;;;5036033;28;20037;-71
2022/04/05 07:03:42;;;;;;;;;;;7.30;99.90;;;;;;5035746;28;20454;-72
2022/04/05 07:06:08;;;;;;;4.50;2.17;;;7.40;99.90;;;;;;5057296;28;19927;-75
2022/04/05 07:08:33;;;;;;;;;;;7.40;99.90;;;;;;5056284;28;20405;-74
2022/04/05 07:11:03;;;;;;;3.97;1.20;;;7.40;99.90;;;;;;5055287;28;20276;-72
2022/04/05 07:13:30;;;;;;;5.03;1.13;;;7.40;99.90;;;;;;5055318;28;20052;-73
2022/04/05 07:15:56;;;;;;;7.78;1.40;;;7.30;99.90;;;;;;5073548;28;20044;-73
2022/04/05 07:18:22;;;;;;;5.32;1.10;;;7.40;99.90;;;;;;5072739;28;20123;-73
2022/04/05 07:20:48;;;;;;;;;;;7.40;99.90;;;;;;5052258;28;20174;-74
2022/04/05 07:23:15;;;;;;;2.88;0.90;;;7.50;99.90;;;;;;5053355;28;19927;-74
2022/04/05 07:25:41;;;;;;;5.80;1.13;;;7.50;99.90;;;;;;5054340;28;20117;-74
2022/04/05 07:28:07;;;;;;;;;;;7.60;99.90;;;;;;5053755;28;20037;-73
2022/04/05 07:30:32;;;;;;;3.67;1.10;;;7.70;99.90;;;;;;5034785;28;19925;-72
2022/04/05 07:32:58;;;;;;;;;;;8.90;99.90;;;;;;5052796;28;20049;-74
2022/04/05 07:35:24;;;;;;;5.28;1.25;;;7.90;99.90;;;;;;5060240;28;19920;-74
2022/04/05 07:37:50;;;;;;;;;;;7.90;99.90;;;;;;5061503;28;20112;-73
2022/04/05 07:40:16;;;;;;;5.60;1.30;;;7.90;99.90;;;;;;5051450;28;20011;-73
2022/04/05 07:42:43;;;;;;;7.65;1.50;;;7.90;99.90;;;;;;5053141;28;20056;-73
2022/04/05 07:45:16;;;;;;;5.07;1.30;;;7.90;99.90;;;;;;5050816;28;20041;-73
2022/04/05 07:47:42;;;;;;;4.28;1.38;;;8.00;99.90;;;;;;5062163;28;20052;-73
2022/04/05 07:50:09;;;;;;;4.75;1.42;;;8.20;99.90;;;;;;5069168;28;20059;-73
2022/04/05 07:52:34;;;;;;;3.67;1.10;;;8.30;99.90;;;;;;5069136;28;20071;-73
2022/04/05 07:55:00;;;;;;;;;;;8.30;99.90;;;;;;5070668;28;20083;-73
2022/04/05 07:57:26;;;;;;;5.32;1.30;;;8.40;99.90;;;;;;5054870;28;19924;-76
2022/04/05 07:59:51;;;;;;;;;;;8.60;99.90;;;;;;5069696;28;20399;-72
2022/04/05 08:02:18;;;;;;;4.82;1.05;;;8.70;99.90;;;;;;5054997;28;20287;-73
2022/04/05 08:04:44;;;;;;;4.07;1.13;;;8.80;99.90;;;;;;5052525;28;20048;-72
2022/04/05 08:07:09;;;;;;;;;;;8.80;99.90;;;;;;5034306;28;20060;-71
2022/04/05 08:09:38;;;;;;;3.55;1.20;;;8.70;99.90;;;;;;5051738;28;20387;-71
2022/04/05 08:12:04;;;;;;;4.03;1.10;;;8.70;99.90;;;;;;5035381;28;20136;-74
2022/04/05 08:14:31;;;;;;;;;;;8.70;99.90;;;;;;5052632;28;20059;-77
2022/04/05 08:17:01;;;;;;;2.90;0.90;;;8.70;99.90;;;;;;5034065;28;19916;-71
2022/04/05 08:19:27;;;;;;;4.60;1.20;;;8.70;99.90;;;;;;5067754;28;20059;-73
2022/04/05 08:21:53;;;;;;;;;;;8.70;99.90;;;;;;5071575;28;20040;-73
2022/04/05 08:24:20;;;;;;;3.03;1.13;;;8.70;99.90;;;;;;5064359;28;20003;-73
2022/04/05 08:26:48;;;;;;;5.18;1.40;;;8.80;99.90;;;;;;5054626;28;20518;-74
2022/04/05 08:29:14;;;;;;;1.77;1.00;;;8.80;99.90;;;;;;5036301;28;20046;-75
2022/04/05 08:31:39;;;;;;;;;;;8.80;99.90;;;;;;5044611;28;20094;-78
2022/04/05 08:34:05;;;;;;;4.03;1.15;;;8.80;99.90;;;;;;5056584;28;20291;-74
2022/04/05 08:36:31;;;;;;;;;;;8.80;99.90;;;;;;5053423;28;20438;-75
2022/04/05 08:38:56;;;;;;;3.95;1.00;;;8.90;99.90;;;;;;5072626;28;20011;-73
2022/04/05 08:41:24;;;;;;;;;;;8.80;99.90;;;;;;5063867;28;20080;-74
2022/04/05 08:43:50;;;;;;;5.47;1.30;;;8.80;99.90;;;;;;5052218;28;19959;-74
2022/04/05 08:46:19;;;;;;;3.47;1.50;;;8.90;99.90;;;;;;5054074;28;20511;-73
2022/04/05 08:48:47;;;;;;;2.33;1.00;;;9.00;99.90;;;;;;5051745;28;20050;-73
2022/04/05 08:51:14;;;;;;;2.70;1.15;;;9.10;99.90;;;;;;5071946;28;20396;-78
2022/04/05 08:53:40;;;;;;;4.95;1.27;;;9.20;99.90;;;;;;5053524;28;20399;-77
2022/04/05 08:56:06;;;;;;;2.88;0.90;;;9.30;99.90;;;;;;5061632;28;20040;-74
2022/04/05 08:58:31;;;;;;;;;;;9.40;99.90;;;;;;5052406;28;20044;-73
2022/04/05 09:00:57;;;;;;;4.50;1.40;;;9.40;99.90;;;;;;5035300;28;20972;-75
2022/04/05 09:03:23;;;;;;;;;;;9.30;99.90;;;;;;5069216;28;20769;-74
2022/04/05 09:05:48;;;;;;;2.30;0.90;;;9.30;99.90;;;;;;5050273;28;19924;-71
2022/04/05 09:08:17;;;;;;;;;;;9.30;99.90;;;;;;5052512;28;20436;-72
2022/04/05 09:10:44;;;;;;;1.58;0.88;;;9.20;99.90;;;;;;5050940;28;20070;-76
2022/04/05 09:13:12;;;;;;;1.60;0.80;;;9.20;99.90;;;;;;5040003;28;20044;-73
2022/04/05 09:15:48;;;;;;;3.25;0.80;;;9.30;99.90;;;;;;5037506;28;20400;-75
2022/04/05 09:18:25;;;;;;;1.48;0.68;;;9.40;99.90;;;;;;5042347;28;20071;-74
2022/04/05 09:20:51;;;;;;;1.55;0.80;;;9.60;99.90;;;;;;5058440;28;20045;-73
2022/04/05 09:23:23;;;;;;;;;;;9.70;99.90;;;;;;5072013;28;20131;-72
2022/04/05 09:26:03;;;;;;;1.75;0.70;;;9.90;99.90;;;;;;5061599;28;19994;-72
2022/04/05 09:28:38;;;;;;;2.40;0.80;;;10.00;99.90;;;;;;5044109;28;20045;-72
2022/04/05 09:31:24;;;;;;;1.13;0.68;;;10.00;99.90;;;;;;5050878;28;20068;-72
2022/04/05 09:34:13;;;;;;;1.40;0.80;;;10.10;99.90;;;;;;5037567;28;20139;-74
2022/04/05 09:36:42;;;;;;;1.20;0.60;;;10.00;99.90;;;;;;5036868;28;20045;-73
2022/04/05 09:39:19;;;;;;;1.83;0.60;;;10.00;99.90;;;;;;5037193;28;20075;-74
2022/04/05 09:42:01;;;;;;;1.60;0.70;;;9.90;99.90;;;;;;5064453;28;20033;-73
2022/04/05 09:44:32;;;;;;;2.78;0.70;;;9.80;99.90;;;;;;5054782;28;20403;-72
2022/04/05 09:47:21;;;;;;;0.98;0.70;;;9.70;99.90;;;;;;5034710;28;20077;-72
2022/04/05 09:49:48;;;;;;;0.88;0.50;;;9.70;99.90;;;;;;5053769;28;20052;-72
2022/04/05 09:52:30;;;;;;;2.08;0.70;;;9.80;99.90;;;;;;5043636;28;20533;-72
2022/04/05 09:55:10;;;;;;;0.85;0.57;;;9.70;99.90;;;;;;5055421;28;20574;-71
2022/04/05 09:57:37;;;;;;;1.80;0.82;;;9.70;99.90;;;;;;5044398;28;20481;-72
2022/04/05 10:00:16;;;;;;;1.85;0.73;;;9.80;99.90;;;;;;5036057;28;20484;-71
2022/04/05 10:03:01;;;;;;;1.20;0.60;;;9.90;99.90;;;;;;5055232;28;20052;-77
2022/04/05 10:05:31;;;;;;;1.35;0.60;;;10.00;99.90;;;;;;5065175;28;20096;-71
2022/04/05 10:08:00;;;;;;;1.33;0.60;;;10.00;99.90;;;;;;5055537;28;20049;-77
2022/04/05 10:10:26;;;;;;;2.13;0.93;;;10.10;99.90;;;;;;5038567;28;20036;-73
2022/04/05 10:12:52;;;;;;;;;;;10.10;99.90;;;;;;5067378;28;20090;-73
2022/04/05 10:15:21;;;;;;;1.80;1.00;;;10.10;99.90;;;;;;5071523;28;19927;-72
2022/04/05 10:17:48;;;;;;;1.90;0.93;;;10.10;99.90;;;;;;5047844;28;20496;-72
2022/04/05 10:20:16;;;;;;;2.72;1.15;;;10.20;99.90;;;;;;5061386;28;20068;-76
2022/04/05 10:22:43;;;;;;;1.70;0.98;;;10.30;99.90;;;;;;5053414;28;20484;-73
2022/04/05 10:25:09;;;;;;;2.10;1.30;;;10.30;99.90;;;;;;5057884;28;20056;-74
2022/04/05 10:27:38;;;;;;;4.13;2.30;;;10.40;99.90;;;;;;5061591;28;20044;-73
2022/04/05 10:30:15;;;;;;;4.43;2.53;;;10.60;99.90;;;;;;5046333;28;20033;-73
2022/04/05 10:32:57;;;;;;;7.00;4.35;;;10.50;99.90;;;;;;5035977;28;20057;-75
2022/04/05 10:35:24;;;;;;;2.17;1.27;;;10.70;99.90;;;;;;5038102;28;20508;-72
2022/04/05 10:37:52;;;;;;;4.57;2.90;;;10.60;99.90;;;;;;5060170;28;20075;-75
2022/04/05 10:40:20;;;;;;;3.40;1.70;;;10.60;99.90;;;;;;5071105;28;20111;-74
2022/04/05 10:42:54;;;;;;;2.63;1.27;;;10.60;99.90;;;;;;5032784;28;20114;-74
2022/04/05 10:45:29;;;;;;;4.35;2.50;;;10.70;99.90;;;;;;5034227;28;20323;-76
2022/04/05 10:48:13;;;;;;;14.13;8.15;;;10.80;99.90;;;;;;5046014;28;20134;-71
2022/04/05 10:50:43;;;;;;;4.22;2.70;;;11.00;99.90;;;;;;5053075;28;20493;-72
2022/04/05 10:53:34;;;;;;;3.15;1.80;;;11.20;99.90;;;;;;5055869;28;20079;-72
2022/04/05 10:56:11;;;;;;;2.42;1.40;;;11.40;99.90;;;;;;5064569;28;20516;-72
2022/04/05 10:58:52;;;;;;;4.15;1.77;;;11.40;99.90;;;;;;5053928;28;20091;-73
2022/04/05 11:01:24;;;;;;;3.03;1.63;;;11.70;99.90;;;;;;5034941;28;20060;-74
2022/04/05 11:04:16;;;;;;;2.97;1.85;;;11.60;99.90;;;;;;5063718;28;20094;-76
2022/04/05 11:07:06;;;;;;;3.13;1.70;;;11.70;99.90;;;;;;5055424;28;20052;-73
2022/04/05 11:09:42;;;;;;;3.50;2.10;;;12.00;99.90;;;;;;5072495;28;20044;-73
2022/04/05 11:12:16;;;;;;;5.50;3.13;;;12.20;99.90;;;;;;5070612;28;20108;-73
2022/04/05 11:14:49;;;;;;;4.25;1.92;;;12.70;99.90;;;;;;5072481;28;20055;-73
2022/04/05 11:17:16;;;;;;;5.32;3.40;;;12.70;99.90;;;;;;5045603;28;20045;-73
2022/04/05 11:19:47;;;;;;;4.70;2.65;;;12.60;99.90;;;;;;5041954;28;20062;-73
2022/04/05 11:22:25;;;;;;;4.05;2.45;;;12.40;99.90;;;;;;5073487;28;20052;-73
2022/04/05 11:24:54;;;;;;;4.88;2.40;;;12.20;99.90;;;;;;5070437;28;20086;-74
2022/04/05 11:27:26;;;;;;;3.33;1.83;;;12.00;99.90;;;;;;5053250;28;20102;-73
2022/04/05 11:30:26;;;;;;;4.22;2.58;;;12.80;99.90;;;;;;5052759;28;20375;-73
2022/04/05 11:33:33;;;;;;;5.53;3.00;;;12.10;99.90;;;;;;5069956;28;20045;-73
2022/04/05 11:36:08;;;;;;;9.13;5.60;;;12.00;99.90;;;;;;5007272;28;20401;-74
2022/04/05 11:38:39;;;;;;;10.98;5.63;;;12.00;99.90;;;;;;5052458;28;20045;-73
2022/04/05 11:41:28;;;;;;;5.75;2.97;;;12.00;99.90;;;;;;5052930;28;20045;-73
2022/04/05 11:43:59;;;;;;;5.57;2.92;;;12.20;99.90;;;;;;5035062;28;20056;-74
2022/04/05 11:46:34;;;;;;;5.22;3.08;;;13.00;99.90;;;;;;5033942;28;20052;-72
2022/04/05 11:49:03;;;;;;;5.35;3.50;;;13.20;99.90;;;;;;5037675;28;20059;-73
2022/04/05 11:51:34;;;;;;;6.82;3.30;;;13.20;99.90;;;;;;5054632;28;20407;-73
2022/04/05 11:54:07;;;;;;;6.38;3.40;;;13.80;99.90;;;;;;5071406;28;20041;-72
2022/04/05 11:56:36;;;;;;;5.68;3.78;;;13.40;99.90;;;;;;5072861;28;20123;-73
2022/04/05 11:59:04;;;;;;;6.43;3.88;;;13.40;99.90;;;;;;5044141;28;20041;-73
2022/04/05 12:01:36;;;;;;;6.45;4.25;;;13.20;99.90;;;;;;5097980;22;20519;-72
2022/04/05 12:04:13;;;;;;;7.85;4.13;;;12.70;99.90;;;;;;5062518;28;20082;-72
2022/04/05 12:06:42;;;;;;;6.03;3.40;;;12.40;99.90;;;;;;5053756;28;20070;-78
2022/04/05 12:09:16;;;;;;;6.03;3.30;;;12.30;99.90;;;;;;5072261;28;20048;-74
2022/04/05 12:11:47;;;;;;;7.70;3.75;;;12.10;99.90;;;;;;5054461;28;20186;-74
2022/04/05 12:14:18;;;;;;;5.78;3.20;;;11.70;99.90;;;;;;5072045;28;20062;-75
2022/04/05 12:16:58;;;;;;;7.32;3.67;;;11.40;99.90;;;;;;5054432;28;20071;-74
2022/04/05 12:19:25;;;;;;;10.13;5.97;;;11.20;99.90;;;;;;5074076;28;20049;-75
2022/04/05 12:21:53;;;;;;;9.07;4.80;;;10.90;99.90;;;;;;5090868;28;20036;-75
2022/04/05 12:24:19;;;;;;;23.85;11.02;;;10.90;99.90;;;;;;5056903;28;20048;-74
2022/04/05 12:26:45;;;;;;;19.60;7.75;;;10.70;99.90;;;;;;5071975;28;20577;-74
2022/04/05 12:29:10;;;;;;;;;;;10.70;99.90;;;;;;5075982;28;20036;-73
2022/04/05 12:31:36;;;;;;;11.23;4.78;;;10.70;99.90;;;;;;5074165;28;19959;-74
2022/04/05 12:34:09;;;;;;;12.40;3.90;;;10.60;99.90;;;;;;5051667;28;20044;-74
2022/04/05 12:36:37;;;;;;;12.05;4.25;;;10.50;99.90;;;;;;5089057;28;20043;-74
2022/04/05 12:39:06;;;;;;;9.50;4.20;;;10.40;99.90;;;;;;5087111;28;20036;-74
2022/04/05 12:41:38;;;;;;;20.75;6.75;;;10.30;99.90;;;;;;5057633;28;20418;-74
2022/04/05 12:44:12;;;;;;;16.98;4.60;;;10.30;99.90;;;;;;5075855;28;20040;-74
2022/04/05 12:46:52;;;;;;;18.13;4.88;;;10.30;99.90;;;;;;5075011;28;20602;-74
2022/04/05 12:49:31;;;;;;;13.40;4.65;;;10.20;99.90;;;;;;5056654;28;20049;-75
2022/04/05 12:52:07;;;;;;;16.05;5.78;;;10.20;99.90;;;;;;5072239;28;20075;-75
2022/04/05 12:54:35;;;;;;;14.50;5.13;;;10.20;99.90;;;;;;5075768;28;20074;-73
2022/04/05 12:57:28;;;;;;;17.67;5.45;;;10.20;99.90;;;;;;5078869;28;20394;-75
2022/04/05 13:00:09;;;;;;;16.17;5.35;;;10.20;99.90;;;;;;5093808;28;20052;-74
2022/04/05 13:02:40;;;;;;;14.23;5.25;;;10.10;99.90;;;;;;5075998;28;20049;-74
2022/04/05 13:06:20;;;;;;;17.05;5.28;;;10.20;99.90;;;;;;5072403;28;20447;-73
2022/04/05 13:07:56;;;;;;;15.88;5.43;;;10.30;99.90;;;;;;5058532;28;20403;-74
2022/04/05 13:10:32;;;;;;;13.27;4.80;;;10.30;99.90;;;;;;5053258;28;20052;-73
2022/04/05 13:13:14;;;;;;;16.15;5.05;;;10.20;99.90;;;;;;5071819;28;20043;-74
2022/04/05 13:15:43;;;;;;;12.50;5.22;;;10.30;99.90;;;;;;5053512;28;20575;-73
2022/04/05 13:18:12;;;;;;;27.88;10.15;;;10.20;99.90;;;;;;5064319;28;20060;-73
2022/04/05 13:20:39;;;;;;;13.50;5.50;;;10.20;99.90;;;;;;5070358;28;20120;-73
2022/04/05 13:23:05;;;;;;;18.92;5.30;;;10.20;99.90;;;;;;5053114;28;20059;-73